QTR9K OTHH-KLAX
Flight info
| Callsign | QTR9K |
|---|---|
| Flight time | N/A |
| Altitude | 33000 |
| Route | ALSEM DCT PURLI DCT PUSOT DCT VUTEB DCT PUVAL DCT BOSEG DCT MEPTI DCT KARER DCT ASNIB DCT PURNI DCT DAMUM DCT EGTAL DCT APELO DCT HUDAH DCT OKTUD DCT PANTU DCT RULUX DCT DUBEX/N0499F340 DCT ADLOR DCT BURTA/N0501F330 DCT VELDT/N0496F340 DCT SADAM DCT DAVET/N0497F330 DCT PENJI/K0915F340 DCT AVZEG DCT DIMAX DCT ABANI DCT ZUKFU/K0915F330 DCT BUKEN/K0907F340 DCT BUDET/K0915F330 DCT BAGED DCT REGPI/K0904F340 DCT LAMGI/K0911F330 DCT KUSUM DCT AKOSO DCT OSGAN/K0902F340 DCT BAGER DCT LIBMI DCT KEGIR/K0909F330 DCT LAKED DCT GRADA DCT KABAT DCT LUGIK DCT AGMUS DCT BAPLI DCT SORLI/K0909F340 DCT RAMUK/K0919F330 DCT ASMAT DCT DIPAR DCT MEBOR DCT MOGTO DCT ADERA DCT TUMOK/K0937F340 DCT LUGOT/K0932F350 DCT MELAM DCT KELIM DCT 89N180E DCT DEVID/N0492F350 DCT 88N141W 80N122W/N0497F370 70N120W 60N119W DCT DUREK DCT ETGEL/N0479F390 DCT ALUVU DCT PARQE DCT AGNEK DCT OVBIP DCT MUPNU DCT ANERI DCT HAUSH DCT JIBOD DCT AMPLE DCT HEPPE DCT AKUKY DCT KUBOO DCT KUBOI DCT MEEAD DCT UUPPP DCT HLDMM/N0492F400 DCT DPUTY DCT CNCAL/N0495F390 DCT BURGL BAYST1 |
| Aircraft | A35K/H-SDE2E3GHIJ3J4J5LM1ORWXY/LB1D1 |
Departure
| Time | 2026-05-04 18:12 |
|---|---|
| Airport | Hamad International Airport (OTHH) |
Arrival
| Time | N/A |
|---|---|
| Airport | Los Angeles International Airport (KLAX) |
| Time | Latitude | Longitude | Altitude | Speed | Heading |
|---|---|---|---|---|---|
| 2026-05-04 17:13 | 25.25911 | 51.60970 | 36 ft | 0 kts | 357° |
| 2026-05-04 18:05 | 25.25901 | 51.60970 | 36 ft | 3 kts | 354° |
| 2026-05-04 18:05 | 25.25881 | 51.60974 | 34 ft | 3 kts | 343° |
| 2026-05-04 18:05 | 25.25863 | 51.60982 | 31 ft | 3 kts | 325° |
| 2026-05-04 18:06 | 25.25846 | 51.61012 | 32 ft | 2 kts | 250° |
| 2026-05-04 18:06 | 25.25847 | 51.61015 | 32 ft | 0 kts | 248° |
| 2026-05-04 18:08 | 25.25846 | 51.61014 | 32 ft | 1 kts | 248° |
| 2026-05-04 18:08 | 25.25839 | 51.60991 | 36 ft | 3 kts | 250° |
| 2026-05-04 18:09 | 25.25805 | 51.60905 | 36 ft | 8 kts | 247° |
| 2026-05-04 18:09 | 25.25760 | 51.60784 | 35 ft | 9 kts | 247° |
| 2026-05-04 18:10 | 25.25736 | 51.60720 | 35 ft | 9 kts | 247° |
| 2026-05-04 18:10 | 25.25710 | 51.60652 | 34 ft | 10 kts | 247° |
| 2026-05-04 18:10 | 25.25682 | 51.60577 | 32 ft | 12 kts | 247° |
| 2026-05-04 18:10 | 25.25665 | 51.60533 | 31 ft | 3 kts | 247° |
| 2026-05-04 18:11 | 25.25658 | 51.60502 | 31 ft | 5 kts | 264° |
| 2026-05-04 18:11 | 25.25669 | 51.60488 | 31 ft | 4 kts | 326° |
| 2026-05-04 18:11 | 25.25829 | 51.60415 | 34 ft | 56 kts | 338° |
| 2026-05-04 18:11 | 25.26397 | 51.60162 | 33 ft | 119 kts | 338° |
| 2026-05-04 18:12 | 25.27355 | 51.59739 | 33 ft | 175 kts | 338° |
| 2026-05-04 18:12 | 25.28485 | 51.59241 | 704 ft | 171 kts | 338° |
| 2026-05-04 18:12 | 25.29618 | 51.58733 | 1107 ft | 178 kts | 338° |
| 2026-05-04 18:12 | 25.30763 | 51.58205 | 1377 ft | 179 kts | 338° |
| 2026-05-04 18:13 | 25.31923 | 51.57672 | 1633 ft | 182 kts | 339° |
| 2026-05-04 18:13 | 25.33087 | 51.57149 | 1877 ft | 184 kts | 339° |
| 2026-05-04 18:13 | 25.35610 | 51.56020 | 2132 ft | 207 kts | 339° |
| 2026-05-04 18:14 | 25.36979 | 51.55402 | 2286 ft | 218 kts | 339° |
| 2026-05-04 18:14 | 25.38434 | 51.54744 | 2368 ft | 233 kts | 339° |
| 2026-05-04 18:14 | 25.39946 | 51.54072 | 2692 ft | 236 kts | 339° |
| 2026-05-04 18:15 | 25.43068 | 51.52742 | 3343 ft | 244 kts | 340° |
| 2026-05-04 18:15 | 25.46310 | 51.51344 | 3996 ft | 254 kts | 339° |
| 2026-05-04 18:15 | 25.47981 | 51.50723 | 4374 ft | 256 kts | 349° |
| 2026-05-04 18:16 | 25.49763 | 51.50752 | 4732 ft | 258 kts | 11° |
| 2026-05-04 18:16 | 25.51501 | 51.51273 | 5151 ft | 260 kts | 14° |
| 2026-05-04 18:16 | 25.53217 | 51.51855 | 5527 ft | 262 kts | 14° |
| 2026-05-04 18:17 | 25.56733 | 51.53034 | 6303 ft | 266 kts | 14° |
| 2026-05-04 18:17 | 25.58511 | 51.53622 | 6674 ft | 268 kts | 14° |
| 2026-05-04 18:17 | 25.62117 | 51.54807 | 7410 ft | 272 kts | 13° |
| 2026-05-04 18:18 | 25.63946 | 51.55406 | 7784 ft | 274 kts | 13° |
| 2026-05-04 18:18 | 25.65799 | 51.55901 | 8170 ft | 274 kts | 5° |
| 2026-05-04 18:18 | 25.67694 | 51.56063 | 8591 ft | 273 kts | 359° |
| 2026-05-04 18:18 | 25.69571 | 51.56135 | 9012 ft | 274 kts | 359° |
| 2026-05-04 18:19 | 25.73421 | 51.56272 | 9784 ft | 279 kts | 359° |
| 2026-05-04 18:19 | 25.75385 | 51.56346 | 10021 ft | 287 kts | 359° |
| 2026-05-04 18:19 | 25.77424 | 51.56423 | 10193 ft | 298 kts | 359° |
| 2026-05-04 18:20 | 25.79536 | 51.56504 | 10353 ft | 308 kts | 359° |
| 2026-05-04 18:20 | 25.81704 | 51.56463 | 10516 ft | 316 kts | 350° |
| 2026-05-04 18:20 | 25.83808 | 51.55812 | 10650 ft | 322 kts | 333° |
| 2026-05-04 18:20 | 25.85661 | 51.54375 | 10794 ft | 331 kts | 314° |
| 2026-05-04 18:21 | 25.87038 | 51.52296 | 10947 ft | 340 kts | 300° |
| 2026-05-04 18:21 | 25.88184 | 51.49948 | 11124 ft | 349 kts | 298° |
| 2026-05-04 18:21 | 25.89326 | 51.47532 | 11289 ft | 357 kts | 298° |
| 2026-05-04 18:21 | 25.90503 | 51.45059 | 11481 ft | 365 kts | 298° |